createdAt,value
2019-04-04T00:01:27.965Z,92.00
2019-04-04T00:03:57.561Z,92.10
2019-04-04T00:06:27.755Z,92.30
2019-04-04T00:08:57.464Z,92.50
2019-04-04T00:11:27.092Z,92.60
2019-04-04T00:13:56.686Z,92.60
2019-04-04T00:16:26.242Z,92.60
2019-04-04T00:18:58.486Z,92.50
2019-04-04T00:21:27.142Z,92.30
2019-04-04T00:23:56.716Z,92.20
2019-04-04T00:26:26.300Z,92.30
2019-04-04T00:28:56.515Z,91.90
2019-04-04T00:31:28.542Z,92.10
2019-04-04T00:33:58.253Z,91.90
2019-04-04T00:36:27.795Z,91.80
2019-04-04T00:38:57.391Z,92.00
2019-04-04T00:41:26.968Z,92.10
2019-04-04T00:43:56.580Z,91.90
2019-04-04T00:46:26.197Z,92.00
2019-04-04T00:48:55.748Z,92.00
2019-04-04T00:51:25.353Z,92.10
2019-04-04T00:53:54.933Z,92.60
2019-04-04T00:56:24.483Z,92.40
2019-04-04T00:58:54.101Z,92.50
2019-04-04T01:01:26.811Z,92.50
2019-04-04T01:03:55.583Z,92.70
2019-04-04T01:06:25.135Z,92.80
2019-04-04T01:08:54.746Z,92.90
2019-04-04T01:11:24.385Z,93.20
2019-04-04T01:13:57.582Z,93.10
2019-04-04T01:16:26.196Z,93.40
2019-04-04T01:18:55.770Z,93.00
2019-04-04T01:21:25.679Z,93.30
2019-04-04T01:23:58.014Z,93.10
2019-04-04T01:26:26.555Z,93.00
2019-04-04T01:28:56.132Z,93.20
2019-04-04T01:31:25.709Z,93.10
2019-04-04T01:33:55.304Z,93.40
2019-04-04T01:36:25.224Z,93.10
2019-04-04T01:38:55.535Z,93.00
2019-04-04T01:41:25.114Z,92.60
2019-04-04T01:44:04.540Z,92.70
2019-04-04T01:46:25.961Z,92.80
2019-04-04T01:48:55.540Z,92.90
2019-04-04T01:51:25.470Z,92.80
2019-04-04T01:53:55.685Z,93.10
2019-04-04T01:56:25.351Z,92.90
2019-04-04T01:58:55.229Z,92.90
2019-04-04T02:01:24.837Z,92.80
2019-04-04T02:03:54.418Z,92.80
2019-04-04T02:06:23.967Z,92.90
2019-04-04T02:08:53.556Z,93.30
2019-04-04T02:11:23.107Z,93.00
2019-04-04T02:13:52.768Z,93.60
2019-04-04T02:16:22.316Z,93.00
2019-04-04T02:18:53.838Z,93.10
2019-04-04T02:21:23.212Z,93.10
2019-04-04T02:24:24.506Z,93.00
2019-04-04T02:27:40.583Z,93.40
2019-04-04T02:33:25.505Z,93.90
2019-04-04T02:35:55.105Z,94.00
2019-04-04T02:38:27.376Z,93.80
2019-04-04T02:40:55.948Z,93.90
2019-04-04T02:43:28.411Z,93.70
2019-04-04T02:45:57.832Z,93.70
2019-04-04T02:48:27.406Z,93.70
2019-04-04T02:50:56.957Z,93.50
2019-04-04T02:53:26.512Z,93.80
2019-04-04T02:55:56.101Z,93.90
2019-04-04T02:58:25.658Z,94.10
2019-04-04T03:00:59.218Z,94.30
2019-04-04T03:03:26.545Z,94.40
2019-04-04T03:05:57.669Z,94.00
2019-04-04T03:08:42.938Z,94.30
2019-04-04T03:11:58.027Z,94.60
2019-04-04T03:15:03.415Z,94.80
2019-04-04T03:18:10.548Z,95.00
2019-04-04T03:20:41.871Z,94.90
2019-04-04T03:23:11.589Z,95.00
2019-04-04T03:25:41.217Z,94.80
2019-04-04T03:28:10.776Z,94.80
2019-04-04T03:30:40.410Z,94.90
2019-04-04T03:33:10.013Z,95.30
2019-04-04T03:35:39.657Z,95.40
2019-04-04T03:38:10.676Z,95.10
2019-04-04T03:40:42.231Z,94.70
2019-04-04T03:43:16.947Z,95.00
2019-04-04T03:45:46.667Z,95.30
2019-04-04T03:48:18.531Z,95.20
2019-04-04T03:50:48.451Z,94.80
2019-04-04T03:53:19.613Z,95.20
2019-04-04T03:55:49.236Z,94.80
2019-04-04T03:58:18.959Z,94.80
2019-04-04T04:00:48.523Z,94.80
2019-04-04T04:03:22.398Z,94.60
2019-04-04T04:05:50.057Z,94.70
2019-04-04T04:08:22.090Z,95.00
2019-04-04T04:10:50.985Z,95.10
2019-04-04T04:16:53.308Z,95.20
2019-04-04T04:19:46.882Z,95.40
2019-04-04T04:22:19.269Z,95.50
2019-04-04T04:24:47.885Z,95.60
2019-04-04T04:27:17.480Z,95.40
2019-04-04T04:29:47.061Z,95.60
2019-04-04T04:32:21.403Z,95.70
2019-04-04T04:34:48.874Z,95.40
2019-04-04T04:37:20.471Z,95.80
2019-04-04T04:39:49.677Z,95.70
2019-04-04T04:42:21.154Z,95.70
2019-04-04T04:44:50.593Z,95.50
2019-04-04T04:47:22.907Z,95.70
2019-04-04T04:49:51.502Z,95.80
2019-04-04T04:52:21.109Z,96.00
2019-04-04T04:54:54.302Z,95.80
2019-04-04T04:57:29.479Z,95.80
2019-04-04T04:59:53.216Z,95.90
2019-04-04T05:02:22.995Z,96.00
2019-04-04T05:04:52.564Z,96.20
2019-04-04T05:07:22.121Z,96.10
2019-04-04T05:09:51.744Z,95.50
2019-04-04T05:12:21.905Z,95.70
2019-04-04T05:14:52.852Z,95.50
2019-04-04T05:17:22.415Z,96.10
2019-04-04T05:19:51.984Z,95.80
2019-04-04T05:22:22.504Z,95.70
2019-04-04T05:25:06.735Z,95.60
2019-04-04T05:27:23.494Z,95.30
2019-04-04T05:29:53.114Z,95.40
2019-04-04T05:32:22.728Z,95.10
2019-04-04T05:34:52.343Z,95.00
2019-04-04T05:37:21.951Z,95.00
2019-04-04T05:39:52.440Z,95.00
2019-04-04T05:42:22.875Z,94.70
2019-04-04T05:44:52.455Z,94.40
2019-04-04T05:47:23.277Z,94.50
2019-04-04T05:49:53.486Z,94.90
2019-04-04T05:52:56.725Z,94.30
2019-04-04T05:56:18.776Z,94.00
2019-04-04T05:59:16.336Z,94.20
2019-04-04T06:05:31.787Z,93.40
2019-04-04T06:08:01.112Z,93.40
2019-04-04T06:10:31.141Z,93.30
2019-04-04T06:16:50.145Z,92.60
2019-04-04T06:19:24.838Z,92.40
2019-04-04T06:21:54.412Z,92.80
2019-04-04T06:24:25.198Z,92.90
2019-04-04T06:26:55.252Z,92.50
2019-04-04T06:29:24.822Z,92.50
2019-04-04T06:31:55.442Z,92.00
2019-04-04T06:34:24.989Z,92.00
2019-04-04T06:36:54.613Z,91.60
2019-04-04T06:39:25.146Z,91.60
2019-04-04T06:41:55.453Z,91.30
2019-04-04T06:44:25.013Z,91.50
2019-04-04T06:46:54.658Z,91.60
2019-04-04T06:49:24.198Z,91.00
2019-04-04T06:51:53.786Z,91.10
2019-04-04T06:54:25.549Z,90.60
2019-04-04T06:56:54.604Z,91.40
2019-04-04T06:59:24.377Z,91.30
2019-04-04T07:01:54.154Z,90.70
2019-04-04T07:04:23.861Z,90.40
2019-04-04T07:06:53.424Z,90.40
2019-04-04T07:09:23.016Z,90.30
2019-04-04T07:11:52.599Z,90.30
2019-04-04T07:14:22.256Z,90.60
2019-04-04T07:16:51.981Z,90.30
2019-04-04T07:19:21.563Z,89.80
2019-04-04T07:21:51.329Z,88.40
2019-04-04T07:24:21.635Z,87.50
2019-04-04T07:26:52.360Z,87.30
2019-04-04T07:36:56.361Z,85.80
2019-04-04T07:39:32.775Z,86.80
2019-04-04T07:42:02.681Z,85.70
2019-04-04T07:44:32.432Z,86.10
2019-04-04T07:47:02.099Z,86.20
2019-04-04T07:49:31.798Z,83.70
2019-04-04T07:52:08.542Z,85.40
2019-04-04T07:54:39.073Z,85.50
2019-04-04T07:57:08.846Z,84.40
2019-04-04T07:59:38.505Z,84.70
2019-04-04T08:02:08.429Z,82.80
2019-04-04T08:04:38.230Z,83.20
2019-04-04T08:07:07.927Z,84.10
2019-04-04T08:10:25.666Z,82.70
2019-04-04T08:13:35.105Z,81.40
2019-04-04T08:20:44.704Z,80.70
2019-04-04T08:23:44.370Z,79.00
2019-04-04T08:26:31.667Z,77.90
2019-04-04T08:29:29.053Z,76.10
2019-04-04T08:37:05.740Z,73.90
2019-04-04T08:39:31.286Z,74.00
2019-04-04T08:42:01.160Z,78.90
2019-04-04T08:44:30.799Z,76.60
2019-04-04T08:47:00.508Z,77.80
2019-04-04T08:49:30.229Z,77.90
2019-04-04T08:51:59.849Z,75.70
2019-04-04T08:54:29.566Z,76.20
2019-04-04T08:56:59.321Z,71.40
2019-04-04T08:59:28.959Z,71.50
2019-04-04T09:01:58.630Z,68.90
2019-04-04T09:04:28.303Z,73.70
2019-04-04T09:06:58.122Z,66.70
2019-04-04T09:09:27.877Z,70.70
2019-04-04T09:12:06.181Z,70.50
2019-04-04T09:14:35.857Z,70.90
2019-04-04T09:17:06.445Z,67.10
2019-04-04T09:19:36.088Z,72.60
2019-04-04T09:22:10.623Z,73.10
2019-04-04T09:24:39.262Z,68.90
2019-04-04T09:27:08.981Z,66.60
2019-04-04T09:29:38.673Z,69.70
2019-04-04T09:32:08.297Z,71.60
2019-04-04T09:34:38.960Z,69.20
2019-04-04T09:37:08.951Z,70.00
2019-04-04T09:39:46.523Z,73.00
2019-04-04T09:42:17.842Z,71.60
2019-04-04T09:44:49.194Z,72.60
2019-04-04T09:47:18.919Z,69.50
2019-04-04T09:49:48.731Z,69.20
2019-04-04T09:52:18.413Z,71.40
2019-04-04T09:54:48.244Z,72.70
2019-04-04T09:57:17.835Z,70.40
2019-04-04T09:59:47.529Z,69.80
2019-04-04T10:02:22.494Z,66.90
2019-04-04T10:04:52.210Z,69.20
2019-04-04T10:07:25.051Z,70.50
2019-04-04T10:09:54.071Z,65.60
2019-04-04T10:12:42.905Z,63.10
2019-04-04T10:19:09.763Z,72.60
2019-04-04T10:22:28.763Z,68.10
2019-04-04T10:25:38.926Z,65.40
2019-04-04T10:29:21.719Z,60.70
2019-04-04T10:32:16.915Z,64.10
2019-04-04T10:36:03.006Z,65.00
2019-04-04T10:39:29.020Z,64.20
2019-04-04T10:42:30.965Z,63.80
2019-04-04T10:45:30.665Z,64.90
2019-04-04T10:49:02.533Z,63.70
2019-04-04T10:52:17.225Z,62.00
2019-04-04T10:55:02.178Z,61.10
2019-04-04T10:58:38.244Z,59.90
2019-04-04T11:02:09.032Z,65.70
2019-04-04T11:05:17.397Z,62.20
2019-04-04T11:08:29.388Z,61.80
2019-04-04T11:11:06.347Z,57.70
2019-04-04T11:13:39.674Z,58.90
2019-04-04T11:16:30.038Z,65.40
2019-04-04T11:18:53.780Z,58.70
2019-04-04T11:21:27.659Z,61.70
2019-04-04T11:23:57.740Z,60.40
2019-04-04T11:26:54.686Z,54.10
2019-04-04T11:29:32.223Z,57.70
2019-04-04T11:32:16.814Z,54.60
2019-04-04T11:34:59.789Z,52.70
2019-04-04T11:41:46.079Z,60.70
2019-04-04T11:44:19.945Z,57.90
2019-04-04T11:46:55.309Z,53.00
2019-04-04T11:49:26.923Z,54.60
2019-04-04T11:52:03.135Z,57.90
2019-04-04T11:54:58.732Z,55.30
2019-04-04T11:58:27.519Z,55.30
2019-04-04T12:04:33.179Z,57.20
2019-04-04T12:07:19.839Z,51.30
2019-04-04T12:14:03.530Z,51.10
2019-04-04T12:16:42.954Z,48.40
2019-04-04T12:19:25.262Z,46.80
2019-04-04T12:28:43.813Z,47.80
2019-04-04T12:31:29.244Z,45.50
2019-04-04T12:34:48.978Z,48.70
2019-04-04T12:40:55.030Z,49.40
2019-04-04T12:43:28.788Z,48.30
2019-04-04T12:46:06.013Z,48.10
2019-04-04T12:48:35.789Z,49.50
2019-04-04T12:51:08.812Z,44.50
2019-04-04T12:53:38.611Z,46.50
2019-04-04T12:56:08.483Z,44.80
2019-04-04T12:58:38.394Z,44.00
2019-04-04T13:01:11.261Z,44.80
2019-04-04T13:03:41.458Z,47.00
2019-04-04T13:06:14.581Z,50.80
2019-04-04T13:08:44.381Z,47.70
2019-04-04T13:11:14.137Z,48.40
2019-04-04T13:13:44.291Z,47.60
2019-04-04T13:16:14.169Z,47.80
2019-04-04T13:18:47.051Z,45.20
2019-04-04T13:21:21.575Z,45.80
2019-04-04T13:23:51.649Z,45.60
2019-04-04T13:26:21.394Z,44.80
2019-04-04T13:28:51.197Z,45.00
2019-04-04T13:31:20.890Z,43.00
2019-04-04T13:33:50.586Z,44.60
2019-04-04T13:36:20.519Z,45.70
2019-04-04T13:38:50.355Z,43.40
2019-04-04T13:41:23.238Z,45.30
2019-04-04T13:43:53.562Z,44.30
2019-04-04T13:46:25.867Z,43.70
2019-04-04T13:48:56.242Z,46.00
2019-04-04T13:51:28.668Z,43.20
2019-04-04T13:53:58.526Z,40.90
2019-04-04T13:56:29.323Z,41.60
2019-04-04T13:59:02.521Z,43.80
2019-04-04T14:01:30.887Z,43.30
2019-04-04T14:04:00.703Z,43.20
2019-04-04T14:06:30.929Z,41.80
2019-04-04T14:09:00.733Z,44.10
2019-04-04T14:11:32.077Z,40.60
2019-04-04T14:14:02.192Z,45.40
2019-04-04T14:16:40.662Z,43.40
2019-04-04T14:19:05.851Z,42.30
2019-04-04T14:21:35.588Z,41.20
2019-04-04T14:24:13.051Z,41.70
2019-04-04T14:26:39.463Z,44.10
2019-04-04T14:29:09.356Z,40.80
2019-04-04T14:31:39.295Z,44.00
2019-04-04T14:34:12.327Z,40.90
2019-04-04T14:36:42.092Z,42.30
2019-04-04T14:39:11.838Z,40.10
2019-04-04T14:41:41.573Z,41.80
2019-04-04T14:44:11.735Z,40.90
2019-04-04T14:46:41.406Z,38.80
2019-04-04T14:49:12.360Z,40.70
2019-04-04T14:51:42.561Z,42.90
2019-04-04T14:54:12.387Z,41.80
2019-04-04T14:56:42.076Z,42.10
2019-04-04T15:00:00.397Z,42.50
2019-04-04T15:06:26.795Z,39.20
2019-04-04T15:09:28.198Z,41.20
2019-04-04T15:12:04.871Z,39.80
2019-04-04T15:19:45.774Z,44.20
2019-04-04T15:29:18.308Z,48.60
2019-04-04T15:35:34.459Z,49.60
2019-04-04T15:42:18.937Z,49.10
2019-04-04T15:44:48.625Z,51.60
2019-04-04T15:47:18.276Z,54.80
2019-04-04T15:49:47.911Z,53.90
2019-04-04T15:52:17.678Z,54.40
2019-04-04T15:54:47.427Z,54.50
2019-04-04T15:57:17.134Z,55.70
2019-04-04T15:59:46.813Z,56.60
2019-04-04T16:02:17.509Z,54.30
2019-04-04T16:04:47.154Z,54.90
2019-04-04T16:07:16.846Z,54.90
2019-04-04T16:09:46.518Z,53.70
2019-04-04T16:12:17.139Z,55.40
2019-04-04T16:14:46.786Z,54.70
2019-04-04T16:17:16.499Z,51.40
2019-04-04T16:19:46.252Z,51.90
2019-04-04T16:22:15.869Z,51.40
2019-04-04T16:24:45.485Z,50.80
2019-04-04T16:27:15.215Z,51.10
2019-04-04T16:29:44.885Z,48.70
2019-04-04T16:32:14.512Z,50.90
2019-04-04T16:34:44.083Z,51.00
2019-04-04T16:37:13.735Z,50.30
2019-04-04T16:39:43.395Z,50.60
2019-04-04T16:42:12.959Z,51.60
2019-04-04T16:44:42.555Z,52.60
2019-04-04T16:47:12.161Z,53.60
2019-04-04T16:49:41.734Z,54.00
2019-04-04T16:52:11.420Z,54.20
2019-04-04T16:54:41.026Z,55.50
2019-04-04T16:57:10.609Z,57.50
2019-04-04T16:59:40.293Z,58.10
2019-04-04T17:02:10.021Z,59.50
2019-04-04T17:04:39.676Z,59.00
2019-04-04T17:07:09.274Z,59.10
2019-04-04T17:09:38.836Z,60.50
2019-04-04T17:12:14.872Z,60.50
2019-04-04T17:14:41.512Z,59.80
2019-04-04T17:18:01.991Z,59.70
2019-04-04T17:21:15.630Z,60.50
2019-04-04T17:24:18.291Z,60.20
2019-04-04T17:27:59.837Z,61.10
2019-04-04T17:30:23.362Z,62.60
2019-04-04T17:32:53.020Z,62.20
2019-04-04T17:35:22.572Z,65.40
2019-04-04T17:37:52.193Z,67.00
2019-04-04T17:40:21.812Z,68.70
2019-04-04T17:42:51.368Z,69.70
2019-04-04T17:45:21.030Z,71.10
2019-04-04T17:47:50.629Z,70.50
2019-04-04T17:50:20.731Z,71.30
2019-04-04T17:52:50.617Z,69.80
2019-04-04T17:55:23.097Z,70.80
2019-04-04T17:57:52.771Z,70.90
2019-04-04T18:00:23.851Z,72.30
2019-04-04T18:02:53.432Z,71.50
2019-04-04T18:05:23.044Z,72.20
2019-04-04T18:07:52.617Z,73.40
2019-04-04T18:10:22.288Z,73.90
2019-04-04T18:12:51.871Z,74.10
2019-04-04T18:15:21.433Z,74.10
2019-04-04T18:17:51.054Z,74.50
2019-04-04T18:20:21.009Z,74.60
2019-04-04T18:22:50.781Z,74.90
2019-04-04T18:25:20.509Z,75.30
2019-04-04T18:27:50.276Z,75.50
2019-04-04T18:30:20.270Z,76.40
2019-04-04T18:32:53.556Z,76.20
2019-04-04T18:35:24.411Z,77.20
2019-04-04T18:37:54.125Z,77.50
2019-04-04T18:40:23.674Z,77.60
2019-04-04T18:42:54.026Z,78.40
2019-04-04T18:45:23.664Z,79.10
2019-04-04T18:47:53.240Z,79.70
2019-04-04T18:50:22.802Z,80.20
2019-04-04T18:52:52.373Z,80.70
2019-04-04T18:55:21.908Z,81.00
2019-04-04T18:57:51.483Z,80.70
2019-04-04T19:00:22.129Z,80.80
2019-04-04T19:02:51.749Z,80.90
2019-04-04T19:05:21.438Z,80.70
2019-04-04T19:07:51.097Z,81.00
2019-04-04T19:10:20.784Z,80.40
2019-04-04T19:12:50.319Z,80.00
2019-04-04T19:15:20.045Z,80.60
2019-04-04T19:17:49.610Z,80.70
2019-04-04T19:20:19.254Z,80.80
2019-04-04T19:22:48.892Z,81.10
2019-04-04T19:25:18.548Z,81.00
2019-04-04T19:27:48.129Z,81.10
2019-04-04T19:30:18.163Z,81.50
2019-04-04T19:32:47.757Z,81.60
2019-04-04T19:35:17.740Z,82.30
2019-04-04T19:37:54.443Z,82.60
2019-04-04T19:40:18.861Z,82.70
2019-04-04T19:42:48.535Z,82.80
2019-04-04T19:45:21.166Z,83.00
2019-04-04T19:47:50.281Z,83.20
2019-04-04T19:50:19.807Z,83.20
2019-04-04T19:52:49.369Z,83.30
2019-04-04T19:55:18.892Z,83.20
2019-04-04T19:57:48.443Z,83.50
2019-04-04T20:00:18.965Z,83.60
2019-04-04T20:02:48.525Z,83.60
2019-04-04T20:05:18.151Z,83.90
2019-04-04T20:07:47.706Z,84.10
2019-04-04T20:10:17.353Z,84.10
2019-04-04T20:12:46.904Z,84.10
2019-04-04T20:15:16.519Z,84.20
2019-04-04T20:17:46.114Z,84.40
2019-04-04T20:20:15.677Z,84.40
2019-04-04T20:22:45.270Z,84.30
2019-04-04T20:25:14.944Z,84.20
2019-04-04T20:27:54.149Z,84.50
2019-04-04T20:30:15.974Z,85.00
2019-04-04T20:32:45.544Z,85.20
2019-04-04T20:35:15.191Z,85.20
2019-04-04T20:37:44.730Z,85.90
2019-04-04T20:40:14.436Z,86.30
2019-04-04T20:42:43.967Z,86.50
2019-04-04T20:45:13.665Z,87.00
2019-04-04T20:47:43.233Z,86.80
2019-04-04T20:50:12.885Z,87.00
2019-04-04T20:52:42.418Z,87.20
2019-04-04T20:55:12.027Z,87.50
2019-04-04T20:57:41.592Z,87.40
2019-04-04T21:00:11.480Z,87.60
2019-04-04T21:02:41.584Z,88.20
2019-04-04T21:05:11.234Z,88.10
2019-04-04T21:07:42.301Z,88.10
2019-04-04T21:10:12.002Z,88.40
2019-04-04T21:12:41.594Z,88.40
2019-04-04T21:15:12.935Z,89.00
2019-04-04T21:17:42.480Z,88.60
2019-04-04T21:20:12.248Z,88.60
2019-04-04T21:22:41.874Z,88.50
2019-04-04T21:25:11.696Z,88.70
2019-04-04T21:27:41.325Z,89.30
2019-04-04T21:30:12.604Z,89.50
2019-04-04T21:32:42.208Z,88.90
2019-04-04T21:35:11.889Z,89.40
2019-04-04T21:37:41.468Z,89.30
2019-04-04T21:40:11.165Z,89.90
2019-04-04T21:42:40.712Z,89.60
2019-04-04T21:45:10.415Z,89.60
2019-04-04T21:47:40.002Z,90.00
2019-04-04T21:50:09.637Z,90.00
2019-04-04T21:52:39.217Z,90.20
2019-04-04T21:55:08.929Z,90.10
2019-04-04T21:57:40.347Z,90.20
2019-04-04T22:00:11.252Z,90.00
2019-04-04T22:02:42.521Z,90.10
2019-04-04T22:05:12.247Z,90.20
2019-04-04T22:07:41.812Z,90.20
2019-04-04T22:10:11.915Z,90.20
2019-04-04T22:12:41.477Z,90.20
2019-04-04T22:15:12.112Z,90.00
2019-04-04T22:17:42.495Z,90.30
2019-04-04T22:20:12.218Z,89.80
2019-04-04T22:22:41.804Z,90.00
2019-04-04T22:25:11.332Z,89.90
2019-04-04T22:27:40.937Z,89.90
2019-04-04T22:30:11.329Z,90.00
2019-04-04T22:32:40.925Z,89.20
2019-04-04T22:35:10.603Z,89.20
2019-04-04T22:37:40.227Z,89.00
2019-04-04T22:40:09.873Z,90.00
2019-04-04T22:42:39.391Z,89.70
2019-04-04T22:45:09.184Z,89.80
2019-04-04T22:47:38.769Z,90.00
2019-04-04T22:50:08.618Z,90.00
2019-04-04T22:52:38.148Z,90.10
2019-04-04T22:55:07.888Z,90.00
2019-04-04T22:57:37.442Z,90.10
2019-04-04T23:00:08.402Z,90.00
2019-04-04T23:02:39.698Z,90.10
2019-04-04T23:05:09.524Z,90.10
2019-04-04T23:07:39.068Z,90.50
2019-04-04T23:10:08.844Z,90.20
2019-04-04T23:12:38.418Z,90.20
2019-04-04T23:15:09.362Z,90.30
2019-04-04T23:17:38.943Z,90.40
2019-04-04T23:20:09.241Z,90.30
2019-04-04T23:22:46.969Z,90.50
2019-04-04T23:25:10.576Z,90.80
2019-04-04T23:27:40.163Z,90.70
2019-04-04T23:30:10.045Z,90.80
2019-04-04T23:32:39.638Z,90.90
2019-04-04T23:35:09.325Z,91.00
2019-04-04T23:37:39.707Z,91.00
2019-04-04T23:40:09.741Z,91.10
2019-04-04T23:42:39.308Z,91.10
2019-04-04T23:45:09.483Z,91.10
2019-04-04T23:47:43.309Z,91.30
2019-04-04T23:50:11.645Z,90.90
2019-04-04T23:52:41.229Z,91.30
2019-04-04T23:55:11.041Z,91.40
2019-04-04T23:57:40.631Z,91.30
